Time;durP1;ratioP1;P1;durP2;ratioP2;P2;SDS_P1;SDS_P2;PMS_P1;PMS_P2;Temp;Humidity;BMP_temperature;BMP_pressure;BME280_temperature;BME280_humidity;BME280_pressure;Samples;Min_cycle;Max_cycle;Signal;HPM_P1;HPM_P2
2023/03/22 00:02:29;;;;;;;39.50;15.43;;;;;;;13.19;73.80;98616.00;6100838;23;20529;-89
2023/03/22 00:04:54;;;;;;;40.40;15.23;;;;;;;13.18;73.92;98613.50;6127056;23;20141;-89
2023/03/22 00:07:20;;;;;;;37.00;15.60;;;;;;;13.17;73.66;98606.53;6101157;23;20176;-89
2023/03/22 00:09:45;;;;;;;34.90;15.63;;;;;;;13.07;74.11;98605.53;6126633;23;20233;-89
2023/03/22 00:12:11;;;;;;;34.20;15.73;;;;;;;12.90;74.73;98610.16;6126329;23;20160;-89
2023/03/22 00:14:36;;;;;;;37.80;15.17;;;;;;;12.95;75.08;98613.28;6126316;23;20160;-89
2023/03/22 00:17:02;;;;;;;32.23;15.00;;;;;;;13.14;73.96;98622.53;6126607;23;20280;-89
2023/03/22 00:19:28;;;;;;;33.00;15.13;;;;;;;13.25;74.09;98620.00;6126611;23;20173;-89
2023/03/22 00:21:54;;;;;;;32.63;14.83;;;;;;;13.32;73.73;98621.22;6100695;23;20180;-90
2023/03/22 00:24:20;;;;;;;37.23;15.57;;;;;;;13.40;73.75;98618.88;6100883;23;20235;-90
2023/03/22 00:26:46;;;;;;;35.33;14.33;;;;;;;13.45;73.34;98622.88;6100871;23;20182;-90
2023/03/22 00:29:12;;;;;;;34.60;16.17;;;;;;;13.48;73.50;98627.06;6126472;23;20228;-92
2023/03/22 00:31:37;;;;;;;35.13;16.00;;;;;;;13.49;73.82;98626.13;6126575;23;20536;-92
2023/03/22 00:34:03;;;;;;;55.87;20.03;;;;;;;13.60;73.74;98620.91;6100681;23;20246;-92
2023/03/22 00:36:28;;;;;;;39.83;17.97;;;;;;;13.77;72.58;98619.69;6100957;23;20151;-93
2023/03/22 00:39:11;;;;;;;41.70;17.77;;;;;;;13.79;72.85;98613.34;6101560;23;20484;-92
2023/03/22 00:41:46;;;;;;;40.40;17.93;;;;;;;13.85;72.53;98626.06;6127344;23;20138;-92
2023/03/22 00:44:12;;;;;;;40.57;19.30;;;;;;;13.81;72.28;98629.88;6101197;23;20160;-92
2023/03/22 00:46:37;;;;;;;42.80;19.73;;;;;;;13.84;72.28;98619.13;6101070;23;20159;-91
2023/03/22 00:49:03;;;;;;;52.23;21.27;;;;;;;13.90;72.24;98618.66;6102106;23;20151;-93
2023/03/22 00:52:21;;;;;;;;;;;;;;;;;;;;;
2023/03/22 00:55:31;;;;;;;67.27;23.77;;;;;;;13.90;71.84;98618.66;6126543;23;20229;-92
2023/03/22 00:57:56;;;;;;;64.07;26.83;;;;;;;13.87;72.60;98620.69;6123319;23;20180;-90
2023/03/22 01:00:21;;;;;;;85.90;29.63;;;;;;;13.89;72.90;98621.41;6101019;23;20643;-90
2023/03/22 01:02:47;;;;;;;78.20;30.63;;;;;;;13.89;72.74;98619.63;6100767;23;20183;-90
2023/03/22 01:05:14;;;;;;;92.23;34.73;;;;;;;13.90;73.00;98621.31;6101178;23;20186;-91
2023/03/22 01:07:49;;;;;;;94.27;33.80;;;;;;;13.93;72.93;98631.63;6100692;23;20168;-91
2023/03/22 01:10:31;;;;;;;88.83;34.37;;;;;;;13.99;72.83;98620.59;6100805;23;20139;-91
2023/03/22 01:30:16;;;;;;;88.87;30.20;;;;;;;13.84;73.53;98639.34;5981145;24;20163;-90
2023/03/22 01:32:42;;;;;;;93.13;30.13;;;;;;;13.88;73.68;98641.66;5967520;23;20229;-91
2023/03/22 01:35:08;;;;;;;87.37;28.13;;;;;;;13.90;73.56;98645.03;6054493;23;20591;-90
2023/03/22 01:37:33;;;;;;;97.30;30.30;;;;;;;13.94;73.51;98646.47;6100773;23;20214;-90
2023/03/22 01:39:59;;;;;;;90.07;29.73;;;;;;;14.00;73.42;98646.00;6126018;23;20175;-90
2023/03/22 01:42:26;;;;;;;83.53;28.03;;;;;;;13.98;73.45;98633.91;6126075;23;20195;-91
2023/03/22 01:45:13;;;;;;;66.93;23.83;;;;;;;13.95;73.53;98632.34;6101910;23;20152;-92
2023/03/22 01:47:42;;;;;;;38.23;14.87;;;;;;;13.90;73.51;98631.84;6102979;23;20495;-93
2023/03/22 08:44:21;;;;;;;37.13;14.67;;;;;;;13.87;74.39;98868.31;6101779;23;20254;-91
2023/03/22 08:47:45;;;;;;;;;;;;;;;;;;;;;
2023/03/22 08:50:47;;;;;;;33.33;16.13;;;;;;;13.80;74.32;98872.34;6097461;23;20237;-90
2023/03/22 08:53:18;;;;;;;38.40;15.67;;;;;;;13.92;73.22;98867.06;6071906;23;20154;-91
2023/03/22 08:58:29;;;;;;;38.53;15.90;;;;;;;13.81;73.22;98872.22;6074467;23;20190;-90
2023/03/22 09:00:55;;;;;;;32.90;14.50;;;;;;;13.97;73.81;98869.34;6072040;23;20181;-90
2023/03/22 09:03:23;;;;;;;31.33;14.90;;;;;;;13.94;74.47;98870.41;6071971;23;20169;-91
2023/03/22 09:05:49;;;;;;;41.63;17.87;;;;;;;14.34;74.12;98870.25;6072205;23;20202;-92
2023/03/22 09:08:17;;;;;;;34.90;14.77;;;;;;;14.34;72.40;98871.09;6072162;23;20597;-92
2023/03/22 09:10:43;;;;;;;30.63;15.73;;;;;;;14.03;72.14;98885.59;6072552;23;20371;-92
2023/03/22 09:13:09;;;;;;;32.77;14.70;;;;;;;14.21;72.51;98869.41;6072675;23;20232;-92
2023/03/22 09:15:34;;;;;;;30.83;13.80;;;;;;;14.35;71.86;98871.94;6097085;23;20618;-92
2023/03/22 09:18:11;;;;;;;31.37;13.73;;;;;;;14.21;71.60;98872.03;6071916;23;20537;-93
2023/03/22 09:20:36;;;;;;;30.80;14.07;;;;;;;14.38;71.47;98869.94;6097162;23;20222;-90
2023/03/22 09:23:15;;;;;;;32.53;15.20;;;;;;;14.27;70.95;98871.63;6096966;23;20155;-92
2023/03/22 09:27:02;;;;;;;;;;;;;;;;;;;;;
2023/03/22 09:36:11;;;;;;;28.70;13.40;;;;;;;15.00;68.39;98860.03;6053044;23;20302;-92
2023/03/22 09:39:15;;;;;;;29.20;12.27;;;;;;;14.93;68.70;98858.81;6071783;23;20156;-92
2023/03/22 09:42:37;;;;;;;;;;;;;;;;;;;;;
2023/03/22 09:45:29;;;;;;;27.20;12.50;;;;;;;15.02;67.79;98863.38;6030629;23;20257;-93
2023/03/22 09:48:57;;;;;;;31.70;12.17;;;;;;;15.02;68.76;98862.53;6014524;23;20165;-92
2023/03/22 10:02:54;;;;;;;22.10;9.20;;;;;;;15.85;61.79;98859.59;5788821;24;20618;-92
2023/03/22 10:05:46;;;;;;;23.77;10.27;;;;;;;15.88;61.49;98862.00;5822591;24;20160;-92
2023/03/22 10:09:31;;;;;;;;;;;;;;;;;;;;;
2023/03/22 10:12:09;;;;;;;;;;;;;;;;;;;;;
2023/03/22 11:18:40;;;;;;;;;;;;;;;;;;;;;
2023/03/22 11:32:38;;;;;;;10.77;5.57;;;;;;;17.16;55.22;98828.63;5688519;25;20552;-91
2023/03/22 11:35:34;;;;;;;19.40;7.27;;;;;;;16.96;54.79;98822.31;5669463;25;20185;-92
2023/03/22 11:45:36;;;;;;;14.30;6.23;;;;;;;17.12;53.37;98813.94;5688590;25;20217;-92
2023/03/22 12:12:33;;;;;;;;;;;;;;;;;;;;;
2023/03/22 12:33:25;;;;;;;;;;;;;;;;;;;;;
2023/03/22 12:54:19;;;;;;;9.50;5.57;;;;;;;18.33;46.83;98790.06;5714679;25;20254;-90
2023/03/22 14:40:27;;;;;;;;;;;;;;;;;;;;;
2023/03/22 14:47:32;;;;;;;;;;;;;;;;;;;;;
2023/03/22 14:58:22;;;;;;;;;;;;;;;;;;;;;
2023/03/22 15:01:47;;;;;;;;;;;;;;;;;;;;;
2023/03/22 15:16:08;;;;;;;;;;;;;;;;;;;;;
2023/03/22 15:23:01;;;;;;;;;;;;;;;;;;;;;
2023/03/22 15:26:00;;;;;;;;;;;;;;;;;;;;;
2023/03/22 15:28:33;;;;;;;8.63;3.50;;;;;;;17.10;47.48;98842.38;5879991;24;20244;-92
2023/03/22 15:31:23;;;;;;;8.70;3.50;;;;;;;17.07;47.48;98845.25;5988808;23;20237;-91
2023/03/22 15:34:14;;;;;;;;;;;;;;;;;;;;;
2023/03/22 15:37:13;;;;;;;8.67;4.53;;;;;;;17.13;48.45;98839.47;6011189;23;20558;-90
2023/03/22 15:40:45;;;;;;;;;;;;;;;;;;;;;
2023/03/22 15:44:02;;;;;;;12.40;4.10;;;;;;;16.96;49.38;98859.41;5983588;23;20253;-90
2023/03/22 18:14:52;;;;;;;;;;;;;;;;;;;;;
2023/03/22 22:51:41;;;;;;;;;;;;;;;;;;;;;
2023/03/22 22:54:10;;;;;;;15.67;7.83;;;;;;;13.76;72.32;98995.50;5866495;24;20276;-90
2023/03/22 22:56:36;;;;;;;15.97;8.80;;;;;;;13.81;72.00;98998.69;6016121;23;20196;-90
2023/03/22 22:59:02;;;;;;;28.20;8.67;;;;;;;13.82;72.11;98989.84;6156246;23;20151;-89
2023/03/22 23:01:28;;;;;;;17.40;8.37;;;;;;;13.84;71.89;98995.00;6155757;23;20151;-90
2023/03/22 23:03:53;;;;;;;20.83;8.43;;;;;;;13.85;71.93;98999.34;6130642;23;20155;-91
2023/03/22 23:06:23;;;;;;;17.13;8.97;;;;;;;13.86;71.92;99006.28;6155916;23;20670;-91
2023/03/22 23:08:54;;;;;;;19.70;9.07;;;;;;;13.88;72.08;99007.03;6130301;23;20162;-91
2023/03/22 23:12:00;;;;;;;26.00;8.87;;;;;;;13.93;72.05;99004.91;6130191;23;20159;-91
2023/03/22 23:14:38;;;;;;;;;;;;;;;;;;;;;
2023/03/22 23:18:31;;;;;;;;;;;;;;;;;;;;;
2023/03/22 23:20:49;;;;;;;20.33;7.87;;;;;;;13.91;71.79;99010.31;6144699;23;20225;-91
2023/03/22 23:23:23;;;;;;;13.30;8.10;;;;;;;13.93;72.00;98997.88;6132640;23;20198;-91
2023/03/22 23:25:51;;;;;;;16.77;8.50;;;;;;;13.93;72.28;99007.56;6131906;23;20220;-91
2023/03/22 23:28:20;;;;;;;20.17;8.10;;;;;;;13.92;72.44;99001.44;6131782;23;20233;-91
2023/03/22 23:30:47;;;;;;;16.17;8.70;;;;;;;13.94;72.24;99004.81;6131876;23;20175;-89
2023/03/22 23:33:12;;;;;;;16.03;8.93;;;;;;;13.86;72.59;99001.03;6157258;23;20162;-90
2023/03/22 23:35:38;;;;;;;23.07;10.03;;;;;;;13.84;72.85;98987.94;6157819;23;20152;-90
2023/03/22 23:38:04;;;;;;;15.30;9.30;;;;;;;13.85;73.02;98994.91;6131458;23;20163;-91
2023/03/22 23:40:33;;;;;;;19.23;9.57;;;;;;;13.87;72.33;98992.16;6157344;23;20151;-90
2023/03/22 23:42:59;;;;;;;19.07;10.10;;;;;;;13.89;72.34;98987.63;6157575;23;20186;-89
2023/03/22 23:45:32;;;;;;;18.23;9.37;;;;;;;13.89;72.38;98980.56;6157299;23;20152;-91
2023/03/22 23:48:15;;;;;;;17.03;9.43;;;;;;;13.89;72.41;98985.84;6131697;23;20143;-90
2023/03/22 23:51:04;;;;;;;;;;;;;;;;;;;;;
2023/03/22 23:53:58;;;;;;;15.57;9.07;;;;;;;13.86;72.71;98988.66;6157545;23;20236;-92
